sensor_id;sensor_type;location;lat;lon;timestamp;P1;durP1;ratioP1;P2;durP2;ratioP2
3873;SDS011;1952;50.872;6.692;2023-03-01T00:30:38;6.80;;;5.93;;
3873;SDS011;1952;50.872;6.692;2023-03-01T00:33:07;6.60;;;5.80;;
3873;SDS011;1952;50.872;6.692;2023-03-01T00:35:35;6.23;;;5.50;;
3873;SDS011;1952;50.872;6.692;2023-03-01T00:38:04;8.33;;;5.57;;
3873;SDS011;1952;50.872;6.692;2023-03-01T00:40:34;6.83;;;5.90;;
3873;SDS011;1952;50.872;6.692;2023-03-01T00:43:03;6.60;;;6.00;;
3873;SDS011;1952;50.872;6.692;2023-03-01T00:45:32;11.47;;;6.63;;
3873;SDS011;1952;50.872;6.692;2023-03-01T00:48:02;7.20;;;6.40;;
3873;SDS011;1952;50.872;6.692;2023-03-01T00:50:31;6.63;;;5.80;;
3873;SDS011;1952;50.872;6.692;2023-03-01T00:52:59;7.13;;;6.13;;
3873;SDS011;1952;50.872;6.692;2023-03-01T00:55:27;11.03;;;7.40;;
3873;SDS011;1952;50.872;6.692;2023-03-01T00:57:56;9.37;;;6.77;;
3873;SDS011;1952;50.872;6.692;2023-03-01T01:00:28;8.53;;;7.57;;
3873;SDS011;1952;50.872;6.692;2023-03-01T01:02:57;7.30;;;6.40;;
3873;SDS011;1952;50.872;6.692;2023-03-01T01:05:26;8.17;;;6.07;;
3873;SDS011;1952;50.872;6.692;2023-03-01T01:07:59;8.20;;;6.30;;
3873;SDS011;1952;50.872;6.692;2023-03-01T01:10:28;13.97;;;6.73;;
3873;SDS011;1952;50.872;6.692;2023-03-01T01:13:01;7.73;;;6.70;;
3873;SDS011;1952;50.872;6.692;2023-03-01T01:15:29;15.83;;;7.23;;
3873;SDS011;1952;50.872;6.692;2023-03-01T01:17:57;8.80;;;7.13;;
3873;SDS011;1952;50.872;6.692;2023-03-01T01:20:32;9.47;;;7.90;;
3873;SDS011;1952;50.872;6.692;2023-03-01T01:23:05;9.80;;;7.07;;
3873;SDS011;1952;50.872;6.692;2023-03-01T01:25:35;7.27;;;6.57;;
3873;SDS011;1952;50.872;6.692;2023-03-01T01:28:03;7.07;;;5.70;;
3873;SDS011;1952;50.872;6.692;2023-03-01T01:30:31;7.67;;;6.40;;
3873;SDS011;1952;50.872;6.692;2023-03-01T01:33:00;10.10;;;7.57;;
3873;SDS011;1952;50.872;6.692;2023-03-01T01:35:28;6.67;;;6.10;;
3873;SDS011;1952;50.872;6.692;2023-03-01T01:37:57;8.43;;;7.50;;
3873;SDS011;1952;50.872;6.692;2023-03-01T01:40:26;9.63;;;6.77;;
3873;SDS011;1952;50.872;6.692;2023-03-01T01:42:54;11.57;;;8.17;;
3873;SDS011;1952;50.872;6.692;2023-03-01T01:45:24;8.00;;;6.57;;
3873;SDS011;1952;50.872;6.692;2023-03-01T01:48:02;9.23;;;6.90;;
3873;SDS011;1952;50.872;6.692;2023-03-01T01:50:34;13.50;;;7.57;;
3873;SDS011;1952;50.872;6.692;2023-03-01T01:53:12;7.87;;;5.90;;
3873;SDS011;1952;50.872;6.692;2023-03-01T01:55:43;10.53;;;7.47;;
3873;SDS011;1952;50.872;6.692;2023-03-01T01:58:14;8.63;;;6.90;;
3873;SDS011;1952;50.872;6.692;2023-03-01T02:00:49;7.03;;;6.37;;
3873;SDS011;1952;50.872;6.692;2023-03-01T02:03:19;6.50;;;5.40;;
3873;SDS011;1952;50.872;6.692;2023-03-01T02:05:56;10.80;;;6.37;;
3873;SDS011;1952;50.872;6.692;2023-03-01T02:08:29;6.90;;;6.20;;
3873;SDS011;1952;50.872;6.692;2023-03-01T02:10:58;8.13;;;6.77;;
3873;SDS011;1952;50.872;6.692;2023-03-01T02:13:27;7.93;;;7.13;;
3873;SDS011;1952;50.872;6.692;2023-03-01T02:15:55;8.87;;;5.83;;
3873;SDS011;1952;50.872;6.692;2023-03-01T02:18:28;9.37;;;6.13;;
3873;SDS011;1952;50.872;6.692;2023-03-01T02:21:00;10.33;;;7.07;;
3873;SDS011;1952;50.872;6.692;2023-03-01T02:23:35;9.20;;;6.17;;
3873;SDS011;1952;50.872;6.692;2023-03-01T02:26:11;9.30;;;7.10;;
3873;SDS011;1952;50.872;6.692;2023-03-01T02:28:49;10.03;;;7.20;;
3873;SDS011;1952;50.872;6.692;2023-03-01T02:31:19;13.27;;;7.10;;
3873;SDS011;1952;50.872;6.692;2023-03-01T02:34:10;8.23;;;7.43;;
3873;SDS011;1952;50.872;6.692;2023-03-01T02:36:40;11.23;;;7.03;;
3873;SDS011;1952;50.872;6.692;2023-03-01T02:39:12;8.50;;;6.80;;
3873;SDS011;1952;50.872;6.692;2023-03-01T02:41:49;10.10;;;7.67;;
3873;SDS011;1952;50.872;6.692;2023-03-01T02:44:19;11.07;;;7.80;;
3873;SDS011;1952;50.872;6.692;2023-03-01T02:46:49;14.40;;;8.03;;
3873;SDS011;1952;50.872;6.692;2023-03-01T02:49:19;10.13;;;7.33;;
3873;SDS011;1952;50.872;6.692;2023-03-01T02:52:14;9.50;;;8.07;;
3873;SDS011;1952;50.872;6.692;2023-03-01T02:54:50;10.90;;;7.47;;
3873;SDS011;1952;50.872;6.692;2023-03-01T02:57:25;9.57;;;6.97;;
3873;SDS011;1952;50.872;6.692;2023-03-01T02:59:55;10.83;;;7.00;;
3873;SDS011;1952;50.872;6.692;2023-03-01T03:02:30;7.30;;;6.60;;
3873;SDS011;1952;50.872;6.692;2023-03-01T03:05:05;9.67;;;7.63;;
3873;SDS011;1952;50.872;6.692;2023-03-01T03:07:40;8.00;;;7.17;;
3873;SDS011;1952;50.872;6.692;2023-03-01T03:10:09;12.63;;;7.70;;
3873;SDS011;1952;50.872;6.692;2023-03-01T03:12:39;8.40;;;7.60;;
3873;SDS011;1952;50.872;6.692;2023-03-01T03:15:10;9.23;;;7.47;;
3873;SDS011;1952;50.872;6.692;2023-03-01T03:17:39;7.20;;;6.57;;
3873;SDS011;1952;50.872;6.692;2023-03-01T03:20:10;9.10;;;6.53;;
3873;SDS011;1952;50.872;6.692;2023-03-01T03:22:45;6.53;;;5.20;;
3873;SDS011;1952;50.872;6.692;2023-03-01T03:25:13;7.63;;;6.47;;
3873;SDS011;1952;50.872;6.692;2023-03-01T03:27:42;8.33;;;7.37;;
3873;SDS011;1952;50.872;6.692;2023-03-01T03:30:20;8.30;;;7.40;;
3873;SDS011;1952;50.872;6.692;2023-03-01T03:32:48;6.27;;;5.67;;
3873;SDS011;1952;50.872;6.692;2023-03-01T03:35:19;7.23;;;6.47;;
3873;SDS011;1952;50.872;6.692;2023-03-01T03:37:48;8.40;;;6.77;;
3873;SDS011;1952;50.872;6.692;2023-03-01T03:40:29;7.00;;;6.30;;
3873;SDS011;1952;50.872;6.692;2023-03-01T03:43:03;9.43;;;6.83;;
3873;SDS011;1952;50.872;6.692;2023-03-01T03:45:33;7.47;;;6.73;;
3873;SDS011;1952;50.872;6.692;2023-03-01T03:48:07;8.50;;;7.60;;
3873;SDS011;1952;50.872;6.692;2023-03-01T03:50:36;8.40;;;7.60;;
3873;SDS011;1952;50.872;6.692;2023-03-01T03:53:06;8.43;;;7.50;;
3873;SDS011;1952;50.872;6.692;2023-03-01T03:55:40;11.03;;;7.37;;
3873;SDS011;1952;50.872;6.692;2023-03-01T03:58:08;10.30;;;6.50;;
3873;SDS011;1952;50.872;6.692;2023-03-01T04:00:39;9.40;;;6.87;;
3873;SDS011;1952;50.872;6.692;2023-03-01T04:03:13;7.67;;;6.50;;
3873;SDS011;1952;50.872;6.692;2023-03-01T04:05:42;11.60;;;8.00;;
3873;SDS011;1952;50.872;6.692;2023-03-01T04:08:10;10.27;;;7.87;;
3873;SDS011;1952;50.872;6.692;2023-03-01T04:10:44;7.40;;;6.37;;
3873;SDS011;1952;50.872;6.692;2023-03-01T04:13:19;9.10;;;7.17;;
3873;SDS011;1952;50.872;6.692;2023-03-01T04:15:49;11.50;;;8.27;;
3873;SDS011;1952;50.872;6.692;2023-03-01T04:18:19;11.97;;;7.00;;
3873;SDS011;1952;50.872;6.692;2023-03-01T04:20:48;11.33;;;7.00;;
3873;SDS011;1952;50.872;6.692;2023-03-01T04:23:23;10.43;;;8.07;;
3873;SDS011;1952;50.872;6.692;2023-03-01T04:25:56;10.87;;;7.57;;
3873;SDS011;1952;50.872;6.692;2023-03-01T04:28:26;11.57;;;7.37;;
3873;SDS011;1952;50.872;6.692;2023-03-01T04:31:03;9.07;;;7.47;;
3873;SDS011;1952;50.872;6.692;2023-03-01T04:33:40;11.60;;;9.57;;
3873;SDS011;1952;50.872;6.692;2023-03-01T04:36:14;12.13;;;8.73;;
3873;SDS011;1952;50.872;6.692;2023-03-01T04:38:43;10.77;;;8.13;;
3873;SDS011;1952;50.872;6.692;2023-03-01T04:41:14;12.67;;;8.50;;
3873;SDS011;1952;50.872;6.692;2023-03-01T04:43:47;10.70;;;7.23;;
3873;SDS011;1952;50.872;6.692;2023-03-01T04:46:21;10.60;;;7.63;;
3873;SDS011;1952;50.872;6.692;2023-03-01T04:48:49;9.60;;;7.60;;
3873;SDS011;1952;50.872;6.692;2023-03-01T04:51:17;8.70;;;7.17;;
3873;SDS011;1952;50.872;6.692;2023-03-01T04:53:50;15.37;;;11.63;;
3873;SDS011;1952;50.872;6.692;2023-03-01T04:56:19;9.10;;;8.10;;
3873;SDS011;1952;50.872;6.692;2023-03-01T04:58:49;11.97;;;8.17;;
3873;SDS011;1952;50.872;6.692;2023-03-01T05:01:24;7.23;;;6.33;;
3873;SDS011;1952;50.872;6.692;2023-03-01T05:03:57;13.10;;;9.30;;
3873;SDS011;1952;50.872;6.692;2023-03-01T05:06:29;9.67;;;8.33;;
3873;SDS011;1952;50.872;6.692;2023-03-01T05:08:57;11.73;;;8.27;;
3873;SDS011;1952;50.872;6.692;2023-03-01T05:11:25;11.17;;;7.13;;
3873;SDS011;1952;50.872;6.692;2023-03-01T05:14:02;11.17;;;8.87;;
3873;SDS011;1952;50.872;6.692;2023-03-01T05:16:37;10.93;;;9.07;;
3873;SDS011;1952;50.872;6.692;2023-03-01T05:19:05;8.30;;;6.97;;
3873;SDS011;1952;50.872;6.692;2023-03-01T05:21:37;13.77;;;8.60;;
3873;SDS011;1952;50.872;6.692;2023-03-01T05:24:26;10.80;;;9.43;;
3873;SDS011;1952;50.872;6.692;2023-03-01T05:27:00;11.60;;;8.70;;
3873;SDS011;1952;50.872;6.692;2023-03-01T05:29:33;8.83;;;7.33;;
3873;SDS011;1952;50.872;6.692;2023-03-01T05:32:03;11.87;;;7.90;;
3873;SDS011;1952;50.872;6.692;2023-03-01T05:34:32;11.27;;;7.30;;
3873;SDS011;1952;50.872;6.692;2023-03-01T05:37:01;8.67;;;7.90;;
3873;SDS011;1952;50.872;6.692;2023-03-01T05:39:31;7.53;;;6.73;;
3873;SDS011;1952;50.872;6.692;2023-03-01T05:41:59;11.87;;;7.97;;
3873;SDS011;1952;50.872;6.692;2023-03-01T05:44:28;9.40;;;8.50;;
3873;SDS011;1952;50.872;6.692;2023-03-01T05:46:56;14.33;;;9.80;;
3873;SDS011;1952;50.872;6.692;2023-03-01T05:49:26;13.77;;;8.43;;
3873;SDS011;1952;50.872;6.692;2023-03-01T05:51:54;10.70;;;8.87;;
3873;SDS011;1952;50.872;6.692;2023-03-01T06:32:37;10.70;;;8.75;;
3873;SDS011;1952;50.872;6.692;2023-03-01T06:35:08;13.27;;;9.03;;
3873;SDS011;1952;50.872;6.692;2023-03-01T06:37:37;12.43;;;9.25;;
3873;SDS011;1952;50.872;6.692;2023-03-01T06:40:06;9.95;;;8.35;;
3873;SDS011;1952;50.872;6.692;2023-03-01T06:42:37;11.27;;;8.63;;
3873;SDS011;1952;50.872;6.692;2023-03-01T06:45:07;11.70;;;8.90;;
3873;SDS011;1952;50.872;6.692;2023-03-01T06:47:37;11.70;;;9.60;;
3873;SDS011;1952;50.872;6.692;2023-03-01T06:50:05;13.43;;;10.27;;
3873;SDS011;1952;50.872;6.692;2023-03-01T06:52:38;13.90;;;10.17;;
3873;SDS011;1952;50.872;6.692;2023-03-01T06:55:07;13.00;;;9.63;;
3873;SDS011;1952;50.872;6.692;2023-03-01T06:57:35;13.50;;;9.43;;
3873;SDS011;1952;50.872;6.692;2023-03-01T07:00:09;12.57;;;9.33;;
3873;SDS011;1952;50.872;6.692;2023-03-01T07:02:39;10.90;;;9.60;;
3873;SDS011;1952;50.872;6.692;2023-03-01T07:05:08;14.23;;;9.67;;
3873;SDS011;1952;50.872;6.692;2023-03-01T07:07:36;10.13;;;8.50;;
3873;SDS011;1952;50.872;6.692;2023-03-01T07:10:05;11.93;;;9.63;;
3873;SDS011;1952;50.872;6.692;2023-03-01T07:12:39;11.07;;;9.17;;
3873;SDS011;1952;50.872;6.692;2023-03-01T07:15:13;13.43;;;9.83;;
3873;SDS011;1952;50.872;6.692;2023-03-01T07:17:42;10.17;;;8.80;;
3873;SDS011;1952;50.872;6.692;2023-03-01T07:20:13;9.30;;;7.83;;
3873;SDS011;1952;50.872;6.692;2023-03-01T07:22:42;9.40;;;8.40;;
3873;SDS011;1952;50.872;6.692;2023-03-01T07:25:15;9.90;;;8.90;;
3873;SDS011;1952;50.872;6.692;2023-03-01T07:27:49;10.50;;;8.03;;
3873;SDS011;1952;50.872;6.692;2023-03-01T07:30:18;12.50;;;9.70;;
3873;SDS011;1952;50.872;6.692;2023-03-01T07:32:48;11.80;;;9.90;;
3873;SDS011;1952;50.872;6.692;2023-03-01T07:35:16;9.93;;;8.90;;
3873;SDS011;1952;50.872;6.692;2023-03-01T07:37:44;10.47;;;9.40;;
3873;SDS011;1952;50.872;6.692;2023-03-01T07:40:18;14.47;;;10.27;;
3873;SDS011;1952;50.872;6.692;2023-03-01T07:42:48;13.60;;;11.13;;
3873;SDS011;1952;50.872;6.692;2023-03-01T07:45:16;12.43;;;10.23;;
3873;SDS011;1952;50.872;6.692;2023-03-01T07:47:51;12.83;;;10.87;;
3873;SDS011;1952;50.872;6.692;2023-03-01T07:50:20;13.47;;;11.00;;
3873;SDS011;1952;50.872;6.692;2023-03-01T07:52:49;11.77;;;10.53;;
3873;SDS011;1952;50.872;6.692;2023-03-01T07:55:17;15.27;;;12.50;;
3873;SDS011;1952;50.872;6.692;2023-03-01T07:57:46;10.93;;;8.43;;
3873;SDS011;1952;50.872;6.692;2023-03-01T08:00:19;12.23;;;10.63;;
3873;SDS011;1952;50.872;6.692;2023-03-01T08:02:47;13.53;;;9.87;;
3873;SDS011;1952;50.872;6.692;2023-03-01T08:05:17;11.67;;;9.80;;
3873;SDS011;1952;50.872;6.692;2023-03-01T08:07:45;9.20;;;8.40;;
3873;SDS011;1952;50.872;6.692;2023-03-01T08:10:14;12.47;;;9.03;;
3873;SDS011;1952;50.872;6.692;2023-03-01T08:12:42;11.23;;;8.90;;
3873;SDS011;1952;50.872;6.692;2023-03-01T08:15:15;11.30;;;10.20;;
3873;SDS011;1952;50.872;6.692;2023-03-01T08:17:44;13.80;;;11.10;;
3873;SDS011;1952;50.872;6.692;2023-03-01T08:20:13;12.03;;;9.57;;
3873;SDS011;1952;50.872;6.692;2023-03-01T08:22:44;12.23;;;10.50;;
3873;SDS011;1952;50.872;6.692;2023-03-01T08:25:12;12.03;;;9.87;;
3873;SDS011;1952;50.872;6.692;2023-03-01T08:27:40;14.93;;;10.23;;
3873;SDS011;1952;50.872;6.692;2023-03-01T08:30:09;10.60;;;9.50;;
3873;SDS011;1952;50.872;6.692;2023-03-01T08:32:42;12.30;;;10.57;;
3873;SDS011;1952;50.872;6.692;2023-03-01T08:35:15;11.77;;;10.53;;
3873;SDS011;1952;50.872;6.692;2023-03-01T08:37:45;12.17;;;9.70;;
3873;SDS011;1952;50.872;6.692;2023-03-01T08:40:13;11.57;;;10.50;;
3873;SDS011;1952;50.872;6.692;2023-03-01T08:42:42;10.60;;;9.60;;
3873;SDS011;1952;50.872;6.692;2023-03-01T08:45:11;14.27;;;12.70;;
3873;SDS011;1952;50.872;6.692;2023-03-01T08:47:45;11.30;;;9.80;;
3873;SDS011;1952;50.872;6.692;2023-03-01T08:50:13;12.67;;;11.53;;
3873;SDS011;1952;50.872;6.692;2023-03-01T08:52:42;10.83;;;9.77;;
3873;SDS011;1952;50.872;6.692;2023-03-01T08:55:16;16.40;;;13.67;;
3873;SDS011;1952;50.872;6.692;2023-03-01T08:57:44;12.10;;;10.90;;
3873;SDS011;1952;50.872;6.692;2023-03-01T09:00:18;14.23;;;11.57;;
3873;SDS011;1952;50.872;6.692;2023-03-01T09:02:46;12.50;;;11.30;;
3873;SDS011;1952;50.872;6.692;2023-03-01T09:05:20;10.70;;;9.70;;
3873;SDS011;1952;50.872;6.692;2023-03-01T09:07:48;11.87;;;10.70;;
3873;SDS011;1952;50.872;6.692;2023-03-01T09:10:34;12.20;;;10.90;;
3873;SDS011;1952;50.872;6.692;2023-03-01T09:13:32;12.83;;;11.53;;
3873;SDS011;1952;50.872;6.692;2023-03-01T09:16:08;11.30;;;9.73;;
3873;SDS011;1952;50.872;6.692;2023-03-01T09:19:04;11.13;;;10.03;;
3873;SDS011;1952;50.872;6.692;2023-03-01T09:21:36;12.00;;;10.87;;
3873;SDS011;1952;50.872;6.692;2023-03-01T09:24:33;10.63;;;9.63;;
3873;SDS011;1952;50.872;6.692;2023-03-01T09:46:39;13.13;;;11.53;;
3873;SDS011;1952;50.872;6.692;2023-03-01T09:49:25;12.07;;;10.87;;
3873;SDS011;1952;50.872;6.692;2023-03-01T09:51:59;11.83;;;10.43;;
3873;SDS011;1952;50.872;6.692;2023-03-01T09:54:32;11.30;;;9.80;;
3873;SDS011;1952;50.872;6.692;2023-03-01T09:57:30;17.57;;;13.33;;
3873;SDS011;1952;50.872;6.692;2023-03-01T10:00:20;12.43;;;11.23;;
3873;SDS011;1952;50.872;6.692;2023-03-01T10:03:23;12.13;;;10.93;;
3873;SDS011;1952;50.872;6.692;2023-03-01T10:06:21;13.13;;;10.60;;
3873;SDS011;1952;50.872;6.692;2023-03-01T10:09:18;12.57;;;11.37;;
3873;SDS011;1952;50.872;6.692;2023-03-01T10:12:02;12.40;;;10.80;;
3873;SDS011;1952;50.872;6.692;2023-03-01T10:14:50;13.73;;;11.53;;
3873;SDS011;1952;50.872;6.692;2023-03-01T10:17:47;11.87;;;10.67;;
3873;SDS011;1952;50.872;6.692;2023-03-01T10:27:38;14.67;;;13.20;;
3873;SDS011;1952;50.872;6.692;2023-03-01T10:30:16;12.47;;;11.00;;
3873;SDS011;1952;50.872;6.692;2023-03-01T10:32:48;12.13;;;10.60;;
3873;SDS011;1952;50.872;6.692;2023-03-01T10:35:18;12.63;;;11.37;;
3873;SDS011;1952;50.872;6.692;2023-03-01T10:38:03;12.73;;;10.97;;
3873;SDS011;1952;50.872;6.692;2023-03-01T10:40:31;14.10;;;12.53;;
3873;SDS011;1952;50.872;6.692;2023-03-01T10:43:10;12.43;;;10.87;;
3873;SDS011;1952;50.872;6.692;2023-03-01T10:45:44;13.00;;;11.80;;
3873;SDS011;1952;50.872;6.692;2023-03-01T10:48:16;11.47;;;10.27;;
3873;SDS011;1952;50.872;6.692;2023-03-01T10:51:04;12.23;;;11.03;;
3873;SDS011;1952;50.872;6.692;2023-03-01T10:53:40;13.03;;;11.70;;
3873;SDS011;1952;50.872;6.692;2023-03-01T10:56:11;14.73;;;13.33;;
3873;SDS011;1952;50.872;6.692;2023-03-01T10:58:58;11.83;;;10.60;;
3873;SDS011;1952;50.872;6.692;2023-03-01T11:01:29;11.97;;;10.63;;
3873;SDS011;1952;50.872;6.692;2023-03-01T11:04:08;11.70;;;10.60;;
3873;SDS011;1952;50.872;6.692;2023-03-01T11:06:42;11.43;;;10.33;;
3873;SDS011;1952;50.872;6.692;2023-03-01T11:09:15;12.60;;;11.30;;
3873;SDS011;1952;50.872;6.692;2023-03-01T11:11:44;13.77;;;12.30;;
3873;SDS011;1952;50.872;6.692;2023-03-01T11:14:16;13.57;;;12.17;;
3873;SDS011;1952;50.872;6.692;2023-03-01T11:16:58;11.93;;;10.83;;
3873;SDS011;1952;50.872;6.692;2023-03-01T11:19:27;13.27;;;11.97;;
3873;SDS011;1952;50.872;6.692;2023-03-01T11:21:58;14.60;;;11.50;;
3873;SDS011;1952;50.872;6.692;2023-03-01T11:24:33;14.80;;;13.47;;
3873;SDS011;1952;50.872;6.692;2023-03-01T11:27:03;11.93;;;9.83;;
3873;SDS011;1952;50.872;6.692;2023-03-01T11:29:48;15.90;;;14.30;;
3873;SDS011;1952;50.872;6.692;2023-03-01T11:32:19;11.87;;;10.77;;
3873;SDS011;1952;50.872;6.692;2023-03-01T11:34:50;12.27;;;11.00;;
3873;SDS011;1952;50.872;6.692;2023-03-01T11:37:24;13.10;;;10.67;;
3873;SDS011;1952;50.872;6.692;2023-03-01T11:39:58;13.17;;;11.87;;
3873;SDS011;1952;50.872;6.692;2023-03-01T11:42:40;11.57;;;10.40;;
3873;SDS011;1952;50.872;6.692;2023-03-01T11:45:17;12.73;;;10.67;;
3873;SDS011;1952;50.872;6.692;2023-03-01T11:47:51;12.63;;;11.33;;
3873;SDS011;1952;50.872;6.692;2023-03-01T11:50:26;12.20;;;11.00;;
3873;SDS011;1952;50.872;6.692;2023-03-01T11:53:20;13.53;;;12.23;;
3873;SDS011;1952;50.872;6.692;2023-03-01T12:34:03;13.10;;;11.90;;
3873;SDS011;1952;50.872;6.692;2023-03-01T12:36:49;11.40;;;10.30;;
3873;SDS011;1952;50.872;6.692;2023-03-01T12:39:27;12.70;;;10.67;;
3873;SDS011;1952;50.872;6.692;2023-03-01T12:42:00;11.60;;;10.60;;
3873;SDS011;1952;50.872;6.692;2023-03-01T12:44:47;11.50;;;10.40;;
3873;SDS011;1952;50.872;6.692;2023-03-01T12:47:39;11.60;;;10.50;;
3873;SDS011;1952;50.872;6.692;2023-03-01T12:50:17;12.87;;;10.73;;
3873;SDS011;1952;50.872;6.692;2023-03-01T12:52:47;11.87;;;10.67;;
3873;SDS011;1952;50.872;6.692;2023-03-01T12:55:24;12.03;;;10.60;;
3873;SDS011;1952;50.872;6.692;2023-03-01T12:57:56;14.13;;;10.60;;
3873;SDS011;1952;50.872;6.692;2023-03-01T13:00:31;13.63;;;11.10;;
3873;SDS011;1952;50.872;6.692;2023-03-01T13:03:24;11.10;;;9.90;;
3873;SDS011;1952;50.872;6.692;2023-03-01T13:06:07;10.03;;;9.13;;
3873;SDS011;1952;50.872;6.692;2023-03-01T13:08:42;11.83;;;10.73;;
3873;SDS011;1952;50.872;6.692;2023-03-01T13:11:15;11.00;;;9.90;;
3873;SDS011;1952;50.872;6.692;2023-03-01T13:13:45;11.37;;;10.20;;
3873;SDS011;1952;50.872;6.692;2023-03-01T13:16:20;12.67;;;11.33;;
3873;SDS011;1952;50.872;6.692;2023-03-01T13:18:50;11.73;;;9.97;;
3873;SDS011;1952;50.872;6.692;2023-03-01T13:21:59;11.50;;;10.37;;
3873;SDS011;1952;50.872;6.692;2023-03-01T13:24:38;9.97;;;9.00;;
3873;SDS011;1952;50.872;6.692;2023-03-01T13:27:09;11.70;;;10.60;;
3873;SDS011;1952;50.872;6.692;2023-03-01T13:29:43;11.80;;;10.60;;
3873;SDS011;1952;50.872;6.692;2023-03-01T13:32:27;12.00;;;10.70;;
3873;SDS011;1952;50.872;6.692;2023-03-01T13:41:07;11.13;;;10.10;;
3873;SDS011;1952;50.872;6.692;2023-03-01T13:43:53;10.47;;;9.50;;
3873;SDS011;1952;50.872;6.692;2023-03-01T13:46:23;11.37;;;10.37;;
3873;SDS011;1952;50.872;6.692;2023-03-01T13:48:55;10.93;;;9.63;;
3873;SDS011;1952;50.872;6.692;2023-03-01T13:51:27;11.23;;;10.10;;
3873;SDS011;1952;50.872;6.692;2023-03-01T13:53:57;10.73;;;9.73;;
3873;SDS011;1952;50.872;6.692;2023-03-01T13:56:28;12.60;;;11.10;;
3873;SDS011;1952;50.872;6.692;2023-03-01T13:59:03;12.80;;;9.57;;
3873;SDS011;1952;50.872;6.692;2023-03-01T14:01:35;12.00;;;10.70;;
3873;SDS011;1952;50.872;6.692;2023-03-01T14:04:19;12.87;;;11.67;;
3873;SDS011;1952;50.872;6.692;2023-03-01T14:06:50;11.70;;;10.50;;
3873;SDS011;1952;50.872;6.692;2023-03-01T14:09:20;11.80;;;10.53;;
3873;SDS011;1952;50.872;6.692;2023-03-01T14:12:04;11.00;;;9.57;;
3873;SDS011;1952;50.872;6.692;2023-03-01T14:14:42;10.13;;;8.97;;
3873;SDS011;1952;50.872;6.692;2023-03-01T14:17:27;12.73;;;11.57;;
3873;SDS011;1952;50.872;6.692;2023-03-01T14:20:00;14.30;;;10.47;;
3873;SDS011;1952;50.872;6.692;2023-03-01T14:22:40;12.60;;;11.30;;
3873;SDS011;1952;50.872;6.692;2023-03-01T14:25:26;11.73;;;10.60;;
3873;SDS011;1952;50.872;6.692;2023-03-01T14:31:25;9.63;;;8.70;;
3873;SDS011;1952;50.872;6.692;2023-03-01T14:33:54;11.27;;;10.17;;
3873;SDS011;1952;50.872;6.692;2023-03-01T14:36:25;12.70;;;11.40;;
3873;SDS011;1952;50.872;6.692;2023-03-01T14:38:55;12.00;;;10.73;;
3873;SDS011;1952;50.872;6.692;2023-03-01T14:41:32;12.23;;;11.03;;
3873;SDS011;1952;50.872;6.692;2023-03-01T14:44:17;11.60;;;10.50;;
3873;SDS011;1952;50.872;6.692;2023-03-01T14:46:53;12.20;;;11.00;;
3873;SDS011;1952;50.872;6.692;2023-03-01T14:49:27;10.30;;;9.23;;
3873;SDS011;1952;50.872;6.692;2023-03-01T14:51:58;13.20;;;10.33;;
3873;SDS011;1952;50.872;6.692;2023-03-01T14:54:29;12.00;;;10.87;;
3873;SDS011;1952;50.872;6.692;2023-03-01T14:57:03;11.10;;;8.80;;
3873;SDS011;1952;50.872;6.692;2023-03-01T14:59:36;10.93;;;9.80;;
3873;SDS011;1952;50.872;6.692;2023-03-01T15:02:15;10.80;;;9.30;;
3873;SDS011;1952;50.872;6.692;2023-03-01T15:04:46;8.70;;;7.40;;
3873;SDS011;1952;50.872;6.692;2023-03-01T15:07:21;9.67;;;8.73;;
3873;SDS011;1952;50.872;6.692;2023-03-01T15:09:52;9.97;;;8.97;;
3873;SDS011;1952;50.872;6.692;2023-03-01T15:12:37;11.73;;;10.03;;
3873;SDS011;1952;50.872;6.692;2023-03-01T15:15:23;11.83;;;8.37;;
3873;SDS011;1952;50.872;6.692;2023-03-01T15:20:50;12.70;;;8.63;;
3873;SDS011;1952;50.872;6.692;2023-03-01T15:23:20;9.00;;;8.20;;
3873;SDS011;1952;50.872;6.692;2023-03-01T15:26:20;8.50;;;7.70;;
3873;SDS011;1952;50.872;6.692;2023-03-01T15:28:51;10.20;;;9.07;;
3873;SDS011;1952;50.872;6.692;2023-03-01T15:31:38;11.30;;;10.13;;
3873;SDS011;1952;50.872;6.692;2023-03-01T15:34:21;9.37;;;8.50;;
3873;SDS011;1952;50.872;6.692;2023-03-01T15:36:51;7.30;;;6.70;;
3873;SDS011;1952;50.872;6.692;2023-03-01T15:39:40;8.90;;;8.10;;
3873;SDS011;1952;50.872;6.692;2023-03-01T15:42:10;10.53;;;8.40;;
3873;SDS011;1952;50.872;6.692;2023-03-01T15:44:41;9.13;;;8.33;;
3873;SDS011;1952;50.872;6.692;2023-03-01T15:47:23;9.40;;;8.50;;
3873;SDS011;1952;50.872;6.692;2023-03-01T15:50:05;11.20;;;8.50;;
3873;SDS011;1952;50.872;6.692;2023-03-01T15:52:40;8.77;;;7.87;;
3873;SDS011;1952;50.872;6.692;2023-03-01T15:55:15;8.80;;;7.33;;
3873;SDS011;1952;50.872;6.692;2023-03-01T15:57:48;9.03;;;7.90;;
3873;SDS011;1952;50.872;6.692;2023-03-01T16:00:17;8.50;;;7.30;;
3873;SDS011;1952;50.872;6.692;2023-03-01T16:02:50;8.93;;;7.30;;
3873;SDS011;1952;50.872;6.692;2023-03-01T16:05:20;10.50;;;9.40;;
3873;SDS011;1952;50.872;6.692;2023-03-01T16:07:53;13.53;;;9.10;;
3873;SDS011;1952;50.872;6.692;2023-03-01T16:10:23;8.80;;;7.90;;
3873;SDS011;1952;50.872;6.692;2023-03-01T16:12:54;8.93;;;8.03;;
3873;SDS011;1952;50.872;6.692;2023-03-01T16:15:24;9.30;;;7.60;;
3873;SDS011;1952;50.872;6.692;2023-03-01T16:17:56;13.00;;;8.30;;
3873;SDS011;1952;50.872;6.692;2023-03-01T16:20:25;9.27;;;7.83;;
3873;SDS011;1952;50.872;6.692;2023-03-01T16:23:00;7.27;;;6.57;;
3873;SDS011;1952;50.872;6.692;2023-03-01T16:25:45;9.70;;;7.40;;
3873;SDS011;1952;50.872;6.692;2023-03-01T16:28:41;7.63;;;6.83;;
3873;SDS011;1952;50.872;6.692;2023-03-01T16:31:17;8.77;;;6.67;;
3873;SDS011;1952;50.872;6.692;2023-03-01T16:33:58;10.00;;;7.90;;
3873;SDS011;1952;50.872;6.692;2023-03-01T16:36:33;9.03;;;7.37;;
3873;SDS011;1952;50.872;6.692;2023-03-01T16:39:08;14.27;;;9.93;;
3873;SDS011;1952;50.872;6.692;2023-03-01T16:41:51;11.27;;;8.17;;
3873;SDS011;1952;50.872;6.692;2023-03-01T16:44:19;7.47;;;6.80;;
3873;SDS011;1952;50.872;6.692;2023-03-01T16:46:48;9.83;;;7.70;;
3873;SDS011;1952;50.872;6.692;2023-03-01T16:49:24;9.23;;;8.13;;
3873;SDS011;1952;50.872;6.692;2023-03-01T16:51:53;7.90;;;7.10;;
3873;SDS011;1952;50.872;6.692;2023-03-01T16:54:28;12.47;;;7.90;;
3873;SDS011;1952;50.872;6.692;2023-03-01T16:56:56;10.40;;;7.30;;
3873;SDS011;1952;50.872;6.692;2023-03-01T16:59:29;9.20;;;6.93;;
3873;SDS011;1952;50.872;6.692;2023-03-01T17:01:59;8.30;;;6.80;;
3873;SDS011;1952;50.872;6.692;2023-03-01T17:04:28;13.20;;;7.83;;
3873;SDS011;1952;50.872;6.692;2023-03-01T17:06:57;10.50;;;7.10;;
3873;SDS011;1952;50.872;6.692;2023-03-01T17:09:30;7.33;;;6.60;;
3873;SDS011;1952;50.872;6.692;2023-03-01T17:12:22;8.30;;;7.50;;
3873;SDS011;1952;50.872;6.692;2023-03-01T17:14:50;7.50;;;5.90;;
3873;SDS011;1952;50.872;6.692;2023-03-01T17:17:19;6.90;;;6.20;;
3873;SDS011;1952;50.872;6.692;2023-03-01T17:19:48;8.30;;;7.50;;
3873;SDS011;1952;50.872;6.692;2023-03-01T17:22:22;6.47;;;5.40;;
3873;SDS011;1952;50.872;6.692;2023-03-01T17:24:52;6.20;;;5.60;;
3873;SDS011;1952;50.872;6.692;2023-03-01T17:27:25;8.57;;;6.70;;
3873;SDS011;1952;50.872;6.692;2023-03-01T17:29:53;9.23;;;6.30;;
3873;SDS011;1952;50.872;6.692;2023-03-01T17:32:27;9.70;;;8.40;;
3873;SDS011;1952;50.872;6.692;2023-03-01T17:34:56;9.00;;;8.10;;
3873;SDS011;1952;50.872;6.692;2023-03-01T17:37:25;11.03;;;7.17;;
3873;SDS011;1952;50.872;6.692;2023-03-01T17:39:55;7.07;;;5.67;;
3873;SDS011;1952;50.872;6.692;2023-03-01T17:42:24;8.63;;;6.33;;
3873;SDS011;1952;50.872;6.692;2023-03-01T17:44:56;7.30;;;6.60;;
3873;SDS011;1952;50.872;6.692;2023-03-01T17:47:26;9.33;;;6.93;;
3873;SDS011;1952;50.872;6.692;2023-03-01T17:49:54;7.60;;;6.23;;
3873;SDS011;1952;50.872;6.692;2023-03-01T17:52:23;14.13;;;8.43;;
3873;SDS011;1952;50.872;6.692;2023-03-01T18:35:34;9.17;;;7.60;;
3873;SDS011;1952;50.872;6.692;2023-03-01T18:38:02;8.30;;;6.97;;
3873;SDS011;1952;50.872;6.692;2023-03-01T18:40:31;8.60;;;5.70;;
3873;SDS011;1952;50.872;6.692;2023-03-01T18:42:59;9.40;;;6.80;;
3873;SDS011;1952;50.872;6.692;2023-03-01T18:45:27;6.70;;;5.60;;
3873;SDS011;1952;50.872;6.692;2023-03-01T18:48:02;6.47;;;5.80;;